sensor_id;sensor_type;location;lat;lon;timestamp;temperature;humidity
12130;DHT22;6128;59.340;18.040;2022-09-09T00:02:27;12.20;99.90
12130;DHT22;6128;59.340;18.040;2022-09-09T00:04:59;12.30;99.90
12130;DHT22;6128;59.340;18.040;2022-09-09T00:07:35;12.30;99.90
12130;DHT22;6128;59.340;18.040;2022-09-09T00:10:17;12.40;99.90
12130;DHT22;6128;59.340;18.040;2022-09-09T00:12:53;12.40;99.90
12130;DHT22;6128;59.340;18.040;2022-09-09T00:15:27;12.50;99.90
12130;DHT22;6128;59.340;18.040;2022-09-09T00:18:03;12.50;99.90
12130;DHT22;6128;59.340;18.040;2022-09-09T00:20:40;12.50;99.90
12130;DHT22;6128;59.340;18.040;2022-09-09T00:23:12;12.50;99.90
12130;DHT22;6128;59.340;18.040;2022-09-09T00:25:47;12.60;99.90
12130;DHT22;6128;59.340;18.040;2022-09-09T00:28:19;12.60;99.90
12130;DHT22;6128;59.340;18.040;2022-09-09T00:30:47;12.60;99.90
12130;DHT22;6128;59.340;18.040;2022-09-09T00:33:17;12.60;99.90
12130;DHT22;6128;59.340;18.040;2022-09-09T00:35:51;12.70;99.90
12130;DHT22;6128;59.340;18.040;2022-09-09T00:38:23;12.70;99.90
12130;DHT22;6128;59.340;18.040;2022-09-09T00:40:53;12.70;99.90
12130;DHT22;6128;59.340;18.040;2022-09-09T00:43:27;12.80;99.90
12130;DHT22;6128;59.340;18.040;2022-09-09T00:46:15;12.80;99.90
12130;DHT22;6128;59.340;18.040;2022-09-09T00:48:53;12.80;99.90
12130;DHT22;6128;59.340;18.040;2022-09-09T00:51:30;12.90;99.90
12130;DHT22;6128;59.340;18.040;2022-09-09T00:54:17;12.90;99.90
12130;DHT22;6128;59.340;18.040;2022-09-09T00:56:50;12.90;99.90
12130;DHT22;6128;59.340;18.040;2022-09-09T00:59:27;13.00;99.90
12130;DHT22;6128;59.340;18.040;2022-09-09T01:01:55;13.00;99.90
12130;DHT22;6128;59.340;18.040;2022-09-09T01:04:28;13.00;99.90
12130;DHT22;6128;59.340;18.040;2022-09-09T01:07:04;13.00;99.90
12130;DHT22;6128;59.340;18.040;2022-09-09T01:09:44;13.00;99.90
12130;DHT22;6128;59.340;18.040;2022-09-09T01:12:15;13.10;99.90
12130;DHT22;6128;59.340;18.040;2022-09-09T01:14:47;13.10;99.90
12130;DHT22;6128;59.340;18.040;2022-09-09T01:17:20;13.10;99.90
12130;DHT22;6128;59.340;18.040;2022-09-09T01:19:59;13.10;99.90
12130;DHT22;6128;59.340;18.040;2022-09-09T01:22:35;13.20;99.90
12130;DHT22;6128;59.340;18.040;2022-09-09T01:25:56;13.20;99.90
12130;DHT22;6128;59.340;18.040;2022-09-09T01:28:27;13.20;99.90
12130;DHT22;6128;59.340;18.040;2022-09-09T01:30:55;13.20;99.90
12130;DHT22;6128;59.340;18.040;2022-09-09T01:33:23;13.20;99.90
12130;DHT22;6128;59.340;18.040;2022-09-09T01:35:53;13.20;99.90
12130;DHT22;6128;59.340;18.040;2022-09-09T01:38:22;13.20;99.90
12130;DHT22;6128;59.340;18.040;2022-09-09T01:40:52;13.20;99.90
12130;DHT22;6128;59.340;18.040;2022-09-09T01:43:20;13.20;99.90
12130;DHT22;6128;59.340;18.040;2022-09-09T01:45:50;13.20;99.90
12130;DHT22;6128;59.340;18.040;2022-09-09T01:48:19;13.20;99.90
12130;DHT22;6128;59.340;18.040;2022-09-09T01:50:48;13.20;99.90
12130;DHT22;6128;59.340;18.040;2022-09-09T01:53:16;13.20;99.90
12130;DHT22;6128;59.340;18.040;2022-09-09T01:55:51;13.20;99.90
12130;DHT22;6128;59.340;18.040;2022-09-09T01:58:32;13.20;99.90
12130;DHT22;6128;59.340;18.040;2022-09-09T02:01:08;13.20;99.90
12130;DHT22;6128;59.340;18.040;2022-09-09T02:03:38;13.20;99.90
12130;DHT22;6128;59.340;18.040;2022-09-09T02:06:24;13.20;99.90
12130;DHT22;6128;59.340;18.040;2022-09-09T02:08:55;13.20;99.90
12130;DHT22;6128;59.340;18.040;2022-09-09T02:11:24;13.20;99.90
12130;DHT22;6128;59.340;18.040;2022-09-09T02:14:00;13.20;99.90
12130;DHT22;6128;59.340;18.040;2022-09-09T02:16:32;13.20;99.90
12130;DHT22;6128;59.340;18.040;2022-09-09T02:19:06;13.20;99.90
12130;DHT22;6128;59.340;18.040;2022-09-09T02:21:40;13.20;99.90
12130;DHT22;6128;59.340;18.040;2022-09-09T02:24:09;13.20;99.90
12130;DHT22;6128;59.340;18.040;2022-09-09T02:26:41;13.30;99.90
12130;DHT22;6128;59.340;18.040;2022-09-09T02:29:14;13.30;99.90
12130;DHT22;6128;59.340;18.040;2022-09-09T02:31:46;13.30;99.90
12130;DHT22;6128;59.340;18.040;2022-09-09T02:34:15;13.30;99.90
12130;DHT22;6128;59.340;18.040;2022-09-09T02:36:46;13.30;99.90
12130;DHT22;6128;59.340;18.040;2022-09-09T02:39:13;13.30;99.90
12130;DHT22;6128;59.340;18.040;2022-09-09T02:41:42;13.30;99.90
12130;DHT22;6128;59.340;18.040;2022-09-09T02:44:12;13.30;99.90
12130;DHT22;6128;59.340;18.040;2022-09-09T02:46:53;13.40;99.90
12130;DHT22;6128;59.340;18.040;2022-09-09T02:49:28;13.40;99.90
12130;DHT22;6128;59.340;18.040;2022-09-09T02:52:02;13.40;99.90
12130;DHT22;6128;59.340;18.040;2022-09-09T02:54:33;13.40;99.90
12130;DHT22;6128;59.340;18.040;2022-09-09T02:57:06;13.40;99.90
12130;DHT22;6128;59.340;18.040;2022-09-09T02:59:37;13.40;99.90
12130;DHT22;6128;59.340;18.040;2022-09-09T03:02:05;13.40;99.90
12130;DHT22;6128;59.340;18.040;2022-09-09T03:04:32;13.40;99.90
12130;DHT22;6128;59.340;18.040;2022-09-09T03:07:00;13.40;99.90
12130;DHT22;6128;59.340;18.040;2022-09-09T03:09:29;13.40;99.90
12130;DHT22;6128;59.340;18.040;2022-09-09T03:11:58;13.40;99.90
12130;DHT22;6128;59.340;18.040;2022-09-09T03:14:25;13.40;99.90
12130;DHT22;6128;59.340;18.040;2022-09-09T03:16:54;13.40;99.90
12130;DHT22;6128;59.340;18.040;2022-09-09T03:19:22;13.40;99.90
12130;DHT22;6128;59.340;18.040;2022-09-09T03:21:49;13.40;99.90
12130;DHT22;6128;59.340;18.040;2022-09-09T03:24:16;13.40;99.90
12130;DHT22;6128;59.340;18.040;2022-09-09T03:26:43;13.40;99.90
12130;DHT22;6128;59.340;18.040;2022-09-09T03:29:11;13.40;99.90
12130;DHT22;6128;59.340;18.040;2022-09-09T03:31:39;13.40;99.90
12130;DHT22;6128;59.340;18.040;2022-09-09T03:34:08;13.40;99.90
12130;DHT22;6128;59.340;18.040;2022-09-09T03:36:35;13.40;99.90
12130;DHT22;6128;59.340;18.040;2022-09-09T03:39:02;13.40;99.90
12130;DHT22;6128;59.340;18.040;2022-09-09T03:41:30;13.40;99.90
12130;DHT22;6128;59.340;18.040;2022-09-09T03:43:57;13.40;99.90
12130;DHT22;6128;59.340;18.040;2022-09-09T03:46:25;13.40;99.90
12130;DHT22;6128;59.340;18.040;2022-09-09T03:48:52;13.40;99.90
12130;DHT22;6128;59.340;18.040;2022-09-09T03:51:21;13.40;99.90
12130;DHT22;6128;59.340;18.040;2022-09-09T03:53:48;13.40;99.90
12130;DHT22;6128;59.340;18.040;2022-09-09T03:56:16;13.40;99.90
12130;DHT22;6128;59.340;18.040;2022-09-09T03:58:43;13.40;99.90
12130;DHT22;6128;59.340;18.040;2022-09-09T04:01:12;13.40;99.90
12130;DHT22;6128;59.340;18.040;2022-09-09T04:03:40;13.50;99.90
12130;DHT22;6128;59.340;18.040;2022-09-09T04:06:12;13.50;99.90
12130;DHT22;6128;59.340;18.040;2022-09-09T04:08:43;13.50;99.90
12130;DHT22;6128;59.340;18.040;2022-09-09T04:11:11;13.50;99.90
12130;DHT22;6128;59.340;18.040;2022-09-09T04:13:39;13.50;99.90
12130;DHT22;6128;59.340;18.040;2022-09-09T04:16:18;13.60;99.90
12130;DHT22;6128;59.340;18.040;2022-09-09T04:18:45;13.60;99.90
12130;DHT22;6128;59.340;18.040;2022-09-09T04:21:13;13.60;99.90
12130;DHT22;6128;59.340;18.040;2022-09-09T04:23:43;13.60;99.90
12130;DHT22;6128;59.340;18.040;2022-09-09T04:26:10;13.60;99.90
12130;DHT22;6128;59.340;18.040;2022-09-09T04:28:37;13.60;99.90
12130;DHT22;6128;59.340;18.040;2022-09-09T04:31:05;13.60;99.90
12130;DHT22;6128;59.340;18.040;2022-09-09T04:33:32;13.70;99.90
12130;DHT22;6128;59.340;18.040;2022-09-09T04:36:00;13.70;99.90
12130;DHT22;6128;59.340;18.040;2022-09-09T04:38:28;13.70;99.90
12130;DHT22;6128;59.340;18.040;2022-09-09T04:40:57;13.70;99.90
12130;DHT22;6128;59.340;18.040;2022-09-09T04:43:24;13.60;99.90
12130;DHT22;6128;59.340;18.040;2022-09-09T04:45:55;13.70;99.90
12130;DHT22;6128;59.340;18.040;2022-09-09T04:48:22;13.70;99.90
12130;DHT22;6128;59.340;18.040;2022-09-09T04:50:57;13.70;99.90
12130;DHT22;6128;59.340;18.040;2022-09-09T04:53:25;13.70;99.90
12130;DHT22;6128;59.340;18.040;2022-09-09T04:55:52;13.70;99.90
12130;DHT22;6128;59.340;18.040;2022-09-09T04:58:21;13.70;99.90
12130;DHT22;6128;59.340;18.040;2022-09-09T05:00:49;13.80;99.90
12130;DHT22;6128;59.340;18.040;2022-09-09T05:03:16;13.80;99.90
12130;DHT22;6128;59.340;18.040;2022-09-09T05:05:43;13.80;99.90
12130;DHT22;6128;59.340;18.040;2022-09-09T05:08:11;13.80;99.90
12130;DHT22;6128;59.340;18.040;2022-09-09T05:10:39;13.80;99.90
12130;DHT22;6128;59.340;18.040;2022-09-09T05:13:08;13.90;99.90
12130;DHT22;6128;59.340;18.040;2022-09-09T05:15:39;13.90;99.90
12130;DHT22;6128;59.340;18.040;2022-09-09T05:18:08;14.00;99.90
12130;DHT22;6128;59.340;18.040;2022-09-09T05:20:35;14.00;99.90
12130;DHT22;6128;59.340;18.040;2022-09-09T05:23:02;14.00;99.90
12130;DHT22;6128;59.340;18.040;2022-09-09T05:25:29;14.10;99.90
12130;DHT22;6128;59.340;18.040;2022-09-09T05:27:58;14.10;99.90
12130;DHT22;6128;59.340;18.040;2022-09-09T05:30:26;14.20;99.90
12130;DHT22;6128;59.340;18.040;2022-09-09T05:32:57;14.30;99.90
12130;DHT22;6128;59.340;18.040;2022-09-09T05:35:24;14.40;99.90
12130;DHT22;6128;59.340;18.040;2022-09-09T05:37:52;14.50;99.90
12130;DHT22;6128;59.340;18.040;2022-09-09T05:40:27;14.50;99.90
12130;DHT22;6128;59.340;18.040;2022-09-09T05:42:54;14.50;99.90
12130;DHT22;6128;59.340;18.040;2022-09-09T05:45:22;14.50;99.90
12130;DHT22;6128;59.340;18.040;2022-09-09T05:47:54;14.40;99.90
12130;DHT22;6128;59.340;18.040;2022-09-09T05:50:23;14.50;99.90
12130;DHT22;6128;59.340;18.040;2022-09-09T05:52:50;14.50;99.90
12130;DHT22;6128;59.340;18.040;2022-09-09T05:55:22;14.60;99.90
12130;DHT22;6128;59.340;18.040;2022-09-09T05:57:49;14.60;99.90
12130;DHT22;6128;59.340;18.040;2022-09-09T06:00:18;14.60;99.90
12130;DHT22;6128;59.340;18.040;2022-09-09T06:02:50;14.60;99.90
12130;DHT22;6128;59.340;18.040;2022-09-09T06:05:19;14.50;99.90
12130;DHT22;6128;59.340;18.040;2022-09-09T06:07:52;14.60;99.90
12130;DHT22;6128;59.340;18.040;2022-09-09T06:10:19;14.50;99.90
12130;DHT22;6128;59.340;18.040;2022-09-09T06:12:46;14.60;99.90
12130;DHT22;6128;59.340;18.040;2022-09-09T06:15:13;14.60;99.90
12130;DHT22;6128;59.340;18.040;2022-09-09T06:17:41;14.60;99.90
12130;DHT22;6128;59.340;18.040;2022-09-09T06:20:09;14.50;99.90
12130;DHT22;6128;59.340;18.040;2022-09-09T06:22:38;14.50;99.90
12130;DHT22;6128;59.340;18.040;2022-09-09T06:25:08;14.60;99.90
12130;DHT22;6128;59.340;18.040;2022-09-09T06:27:36;14.50;99.90
12130;DHT22;6128;59.340;18.040;2022-09-09T06:30:04;14.60;99.90
12130;DHT22;6128;59.340;18.040;2022-09-09T06:32:31;14.60;99.90
12130;DHT22;6128;59.340;18.040;2022-09-09T06:35:00;14.70;99.90
12130;DHT22;6128;59.340;18.040;2022-09-09T06:37:28;14.70;99.90
12130;DHT22;6128;59.340;18.040;2022-09-09T06:39:55;14.80;99.90
12130;DHT22;6128;59.340;18.040;2022-09-09T06:42:23;14.70;99.90
12130;DHT22;6128;59.340;18.040;2022-09-09T06:44:50;14.70;99.90
12130;DHT22;6128;59.340;18.040;2022-09-09T06:47:18;14.90;99.90
12130;DHT22;6128;59.340;18.040;2022-09-09T06:49:45;15.00;99.90
12130;DHT22;6128;59.340;18.040;2022-09-09T06:52:12;15.20;99.90
12130;DHT22;6128;59.340;18.040;2022-09-09T06:54:39;15.50;99.90
12130;DHT22;6128;59.340;18.040;2022-09-09T06:57:06;15.90;99.90
12130;DHT22;6128;59.340;18.040;2022-09-09T06:59:35;16.30;99.90
12130;DHT22;6128;59.340;18.040;2022-09-09T07:02:02;16.60;99.90
12130;DHT22;6128;59.340;18.040;2022-09-09T07:04:29;16.90;99.90
12130;DHT22;6128;59.340;18.040;2022-09-09T07:06:56;17.10;99.90
12130;DHT22;6128;59.340;18.040;2022-09-09T07:09:24;17.30;99.90
12130;DHT22;6128;59.340;18.040;2022-09-09T07:11:53;17.20;99.90
12130;DHT22;6128;59.340;18.040;2022-09-09T07:14:20;17.30;99.90
12130;DHT22;6128;59.340;18.040;2022-09-09T07:16:49;17.40;99.90
12130;DHT22;6128;59.340;18.040;2022-09-09T07:19:17;17.60;99.90
12130;DHT22;6128;59.340;18.040;2022-09-09T07:21:44;17.80;99.90
12130;DHT22;6128;59.340;18.040;2022-09-09T07:24:11;17.80;99.90
12130;DHT22;6128;59.340;18.040;2022-09-09T07:26:39;17.90;99.90
12130;DHT22;6128;59.340;18.040;2022-09-09T07:29:06;18.20;99.70
12130;DHT22;6128;59.340;18.040;2022-09-09T07:31:35;18.40;99.70
12130;DHT22;6128;59.340;18.040;2022-09-09T07:34:05;18.60;99.60
12130;DHT22;6128;59.340;18.040;2022-09-09T07:36:34;18.60;99.30
12130;DHT22;6128;59.340;18.040;2022-09-09T07:39:03;18.50;99.20
12130;DHT22;6128;59.340;18.040;2022-09-09T07:41:34;18.50;99.00
12130;DHT22;6128;59.340;18.040;2022-09-09T07:44:04;18.50;98.70
12130;DHT22;6128;59.340;18.040;2022-09-09T07:46:32;18.50;98.30
12130;DHT22;6128;59.340;18.040;2022-09-09T07:49:02;18.70;98.30
12130;DHT22;6128;59.340;18.040;2022-09-09T07:51:31;18.40;98.30
12130;DHT22;6128;59.340;18.040;2022-09-09T07:54:00;18.00;98.00
12130;DHT22;6128;59.340;18.040;2022-09-09T07:56:31;17.20;97.70
12130;DHT22;6128;59.340;18.040;2022-09-09T07:58:58;16.70;97.70
12130;DHT22;6128;59.340;18.040;2022-09-09T08:01:28;16.40;97.70
12130;DHT22;6128;59.340;18.040;2022-09-09T08:03:58;16.40;97.60
12130;DHT22;6128;59.340;18.040;2022-09-09T08:06:28;16.70;97.60
12130;DHT22;6128;59.340;18.040;2022-09-09T08:08:56;17.00;97.80
12130;DHT22;6128;59.340;18.040;2022-09-09T08:11:25;17.00;98.00
12130;DHT22;6128;59.340;18.040;2022-09-09T08:13:52;17.00;98.10
12130;DHT22;6128;59.340;18.040;2022-09-09T08:16:21;17.00;98.20
12130;DHT22;6128;59.340;18.040;2022-09-09T08:18:48;17.00;98.20
12130;DHT22;6128;59.340;18.040;2022-09-09T08:21:18;16.90;98.10
12130;DHT22;6128;59.340;18.040;2022-09-09T08:23:50;16.90;98.00
12130;DHT22;6128;59.340;18.040;2022-09-09T08:26:19;16.80;98.00
12130;DHT22;6128;59.340;18.040;2022-09-09T08:28:49;16.80;97.90
12130;DHT22;6128;59.340;18.040;2022-09-09T08:31:20;16.70;97.90
12130;DHT22;6128;59.340;18.040;2022-09-09T08:33:48;16.70;97.90
12130;DHT22;6128;59.340;18.040;2022-09-09T08:36:17;16.80;98.00
12130;DHT22;6128;59.340;18.040;2022-09-09T08:38:50;16.80;98.10
12130;DHT22;6128;59.340;18.040;2022-09-09T08:41:37;16.70;98.10
12130;DHT22;6128;59.340;18.040;2022-09-09T08:44:10;16.60;98.00
12130;DHT22;6128;59.340;18.040;2022-09-09T08:46:48;16.50;97.90
12130;DHT22;6128;59.340;18.040;2022-09-09T08:52:12;16.30;97.60
12130;DHT22;6128;59.340;18.040;2022-09-09T08:54:43;15.90;97.50
12130;DHT22;6128;59.340;18.040;2022-09-09T08:57:14;15.80;97.50
12130;DHT22;6128;59.340;18.040;2022-09-09T08:59:45;15.60;97.60
12130;DHT22;6128;59.340;18.040;2022-09-09T09:02:16;15.60;97.70
12130;DHT22;6128;59.340;18.040;2022-09-09T09:04:52;15.70;97.90
12130;DHT22;6128;59.340;18.040;2022-09-09T09:07:32;15.70;98.00
12130;DHT22;6128;59.340;18.040;2022-09-09T09:10:12;15.60;98.10
12130;DHT22;6128;59.340;18.040;2022-09-09T09:12:44;15.60;98.20
12130;DHT22;6128;59.340;18.040;2022-09-09T09:15:17;15.60;98.30
12130;DHT22;6128;59.340;18.040;2022-09-09T09:17:45;15.50;98.30
12130;DHT22;6128;59.340;18.040;2022-09-09T09:20:13;15.60;98.20
12130;DHT22;6128;59.340;18.040;2022-09-09T09:22:48;15.70;98.20
12130;DHT22;6128;59.340;18.040;2022-09-09T09:25:20;15.90;98.20
12130;DHT22;6128;59.340;18.040;2022-09-09T09:27:59;15.90;98.20
12130;DHT22;6128;59.340;18.040;2022-09-09T09:30:31;15.90;98.20
12130;DHT22;6128;59.340;18.040;2022-09-09T09:33:04;15.80;98.30
12130;DHT22;6128;59.340;18.040;2022-09-09T09:35:35;15.70;98.40
12130;DHT22;6128;59.340;18.040;2022-09-09T09:38:13;15.80;98.40
12130;DHT22;6128;59.340;18.040;2022-09-09T09:40:50;15.80;98.60
12130;DHT22;6128;59.340;18.040;2022-09-09T09:43:23;15.80;98.60
12130;DHT22;6128;59.340;18.040;2022-09-09T09:45:51;15.80;98.60
12130;DHT22;6128;59.340;18.040;2022-09-09T09:48:18;15.70;98.70
12130;DHT22;6128;59.340;18.040;2022-09-09T09:50:50;15.70;98.70
12130;DHT22;6128;59.340;18.040;2022-09-09T09:53:22;15.70;98.70
12130;DHT22;6128;59.340;18.040;2022-09-09T09:55:54;15.80;98.70
12130;DHT22;6128;59.340;18.040;2022-09-09T09:58:22;15.60;98.70
12130;DHT22;6128;59.340;18.040;2022-09-09T10:00:51;15.50;98.70
12130;DHT22;6128;59.340;18.040;2022-09-09T10:03:23;15.50;98.70
12130;DHT22;6128;59.340;18.040;2022-09-09T10:05:50;15.70;98.70
12130;DHT22;6128;59.340;18.040;2022-09-09T10:08:17;15.60;98.70
12130;DHT22;6128;59.340;18.040;2022-09-09T10:11:02;15.60;98.70
12130;DHT22;6128;59.340;18.040;2022-09-09T10:13:40;15.70;98.80
12130;DHT22;6128;59.340;18.040;2022-09-09T10:16:22;15.70;98.80
12130;DHT22;6128;59.340;18.040;2022-09-09T10:19:00;15.70;98.80
12130;DHT22;6128;59.340;18.040;2022-09-09T10:21:49;15.70;98.80
12130;DHT22;6128;59.340;18.040;2022-09-09T10:27:21;15.60;98.70
12130;DHT22;6128;59.340;18.040;2022-09-09T10:30:09;15.70;98.60
12130;DHT22;6128;59.340;18.040;2022-09-09T10:32:48;15.60;98.40
12130;DHT22;6128;59.340;18.040;2022-09-09T10:35:29;15.60;98.30
12130;DHT22;6128;59.340;18.040;2022-09-09T10:38:15;15.60;98.20
12130;DHT22;6128;59.340;18.040;2022-09-09T10:40:59;15.60;98.10
12130;DHT22;6128;59.340;18.040;2022-09-09T10:43:50;15.50;97.90
12130;DHT22;6128;59.340;18.040;2022-09-09T10:46:28;15.70;97.90
12130;DHT22;6128;59.340;18.040;2022-09-09T10:49:10;16.00;98.00
12130;DHT22;6128;59.340;18.040;2022-09-09T10:51:49;16.20;98.00
12130;DHT22;6128;59.340;18.040;2022-09-09T10:54:28;16.60;98.20
12130;DHT22;6128;59.340;18.040;2022-09-09T10:56:59;16.40;98.20
12130;DHT22;6128;59.340;18.040;2022-09-09T10:59:35;16.10;98.30
12130;DHT22;6128;59.340;18.040;2022-09-09T11:02:11;15.90;98.30
12130;DHT22;6128;59.340;18.040;2022-09-09T11:04:44;15.90;98.30
12130;DHT22;6128;59.340;18.040;2022-09-09T11:07:14;15.90;98.20
12130;DHT22;6128;59.340;18.040;2022-09-09T11:09:50;15.90;98.10
12130;DHT22;6128;59.340;18.040;2022-09-09T11:12:21;15.70;98.10
12130;DHT22;6128;59.340;18.040;2022-09-09T11:14:55;15.70;98.10
12130;DHT22;6128;59.340;18.040;2022-09-09T11:17:26;15.70;98.10
12130;DHT22;6128;59.340;18.040;2022-09-09T11:19:57;15.70;98.00
12130;DHT22;6128;59.340;18.040;2022-09-09T11:22:28;15.90;98.00
12130;DHT22;6128;59.340;18.040;2022-09-09T11:24:58;15.90;98.00
12130;DHT22;6128;59.340;18.040;2022-09-09T11:27:31;15.90;98.00
12130;DHT22;6128;59.340;18.040;2022-09-09T11:30:18;15.90;98.00
12130;DHT22;6128;59.340;18.040;2022-09-09T11:33:02;15.90;98.00
12130;DHT22;6128;59.340;18.040;2022-09-09T11:35:41;15.90;98.00
12130;DHT22;6128;59.340;18.040;2022-09-09T11:38:31;15.80;98.00
12130;DHT22;6128;59.340;18.040;2022-09-09T11:41:06;15.60;98.20
12130;DHT22;6128;59.340;18.040;2022-09-09T11:43:40;15.70;98.30
12130;DHT22;6128;59.340;18.040;2022-09-09T11:46:10;15.60;98.40
12130;DHT22;6128;59.340;18.040;2022-09-09T11:48:39;15.50;98.60
12130;DHT22;6128;59.340;18.040;2022-09-09T11:51:10;15.50;98.70
12130;DHT22;6128;59.340;18.040;2022-09-09T11:53:48;15.60;98.80
12130;DHT22;6128;59.340;18.040;2022-09-09T11:56:25;15.70;98.80
12130;DHT22;6128;59.340;18.040;2022-09-09T11:58:59;15.90;98.90
12130;DHT22;6128;59.340;18.040;2022-09-09T12:01:40;16.00;99.00
12130;DHT22;6128;59.340;18.040;2022-09-09T12:04:34;16.00;99.00
12130;DHT22;6128;59.340;18.040;2022-09-09T12:07:04;16.00;99.00
12130;DHT22;6128;59.340;18.040;2022-09-09T12:09:45;16.00;99.10
12130;DHT22;6128;59.340;18.040;2022-09-09T12:12:32;16.10;99.10
12130;DHT22;6128;59.340;18.040;2022-09-09T12:15:25;16.10;99.10
12130;DHT22;6128;59.340;18.040;2022-09-09T12:17:57;16.10;99.10
12130;DHT22;6128;59.340;18.040;2022-09-09T12:20:31;16.10;99.20
12130;DHT22;6128;59.340;18.040;2022-09-09T12:23:22;16.10;99.20
12130;DHT22;6128;59.340;18.040;2022-09-09T12:26:11;16.30;99.20
12130;DHT22;6128;59.340;18.040;2022-09-09T12:28:54;16.40;99.30
12130;DHT22;6128;59.340;18.040;2022-09-09T12:31:28;16.60;99.30
12130;DHT22;6128;59.340;18.040;2022-09-09T12:34:06;16.70;99.20
12130;DHT22;6128;59.340;18.040;2022-09-09T12:36:37;16.60;99.20
12130;DHT22;6128;59.340;18.040;2022-09-09T12:39:15;16.40;99.20
12130;DHT22;6128;59.340;18.040;2022-09-09T12:41:51;16.20;99.20
12130;DHT22;6128;59.340;18.040;2022-09-09T12:44:22;16.20;99.20
12130;DHT22;6128;59.340;18.040;2022-09-09T12:46:49;16.10;99.20
12130;DHT22;6128;59.340;18.040;2022-09-09T12:49:29;16.30;99.30
12130;DHT22;6128;59.340;18.040;2022-09-09T12:52:06;16.30;99.30
12130;DHT22;6128;59.340;18.040;2022-09-09T12:54:44;16.40;99.30
12130;DHT22;6128;59.340;18.040;2022-09-09T12:57:25;16.40;99.30
12130;DHT22;6128;59.340;18.040;2022-09-09T13:00:10;16.50;99.20
12130;DHT22;6128;59.340;18.040;2022-09-09T13:02:46;16.40;99.20
12130;DHT22;6128;59.340;18.040;2022-09-09T13:05:20;16.30;99.10
12130;DHT22;6128;59.340;18.040;2022-09-09T13:07:48;16.10;99.10
12130;DHT22;6128;59.340;18.040;2022-09-09T13:10:22;15.90;99.10
12130;DHT22;6128;59.340;18.040;2022-09-09T13:12:52;15.90;99.10
12130;DHT22;6128;59.340;18.040;2022-09-09T13:15:22;16.00;99.20
12130;DHT22;6128;59.340;18.040;2022-09-09T13:17:56;16.10;99.20
12130;DHT22;6128;59.340;18.040;2022-09-09T13:20:28;16.10;99.20
12130;DHT22;6128;59.340;18.040;2022-09-09T13:22:56;16.00;99.30
12130;DHT22;6128;59.340;18.040;2022-09-09T13:25:25;16.00;99.30
12130;DHT22;6128;59.340;18.040;2022-09-09T13:27:55;15.80;99.20
12130;DHT22;6128;59.340;18.040;2022-09-09T13:30:25;15.70;99.20
12130;DHT22;6128;59.340;18.040;2022-09-09T13:33:20;15.60;99.20
12130;DHT22;6128;59.340;18.040;2022-09-09T13:35:52;15.60;99.20
12130;DHT22;6128;59.340;18.040;2022-09-09T13:38:20;15.60;99.20
12130;DHT22;6128;59.340;18.040;2022-09-09T13:40:59;15.60;99.20
12130;DHT22;6128;59.340;18.040;2022-09-09T13:43:28;15.60;99.20
12130;DHT22;6128;59.340;18.040;2022-09-09T13:45:57;15.50;99.30
12130;DHT22;6128;59.340;18.040;2022-09-09T13:48:25;15.60;99.30
12130;DHT22;6128;59.340;18.040;2022-09-09T13:51:00;15.60;99.30
12130;DHT22;6128;59.340;18.040;2022-09-09T13:53:27;15.70;99.30
12130;DHT22;6128;59.340;18.040;2022-09-09T13:55:54;15.80;99.30
12130;DHT22;6128;59.340;18.040;2022-09-09T13:58:22;15.90;99.40
12130;DHT22;6128;59.340;18.040;2022-09-09T14:00:51;16.00;99.40
12130;DHT22;6128;59.340;18.040;2022-09-09T14:03:19;16.00;99.40
12130;DHT22;6128;59.340;18.040;2022-09-09T14:05:46;16.00;99.40
12130;DHT22;6128;59.340;18.040;2022-09-09T14:08:24;15.90;99.50
12130;DHT22;6128;59.340;18.040;2022-09-09T14:10:52;15.90;99.50
12130;DHT22;6128;59.340;18.040;2022-09-09T14:13:21;15.90;99.50
12130;DHT22;6128;59.340;18.040;2022-09-09T14:15:48;15.90;99.50
12130;DHT22;6128;59.340;18.040;2022-09-09T14:18:16;15.80;99.50
12130;DHT22;6128;59.340;18.040;2022-09-09T14:20:45;15.70;99.50
12130;DHT22;6128;59.340;18.040;2022-09-09T14:23:12;15.60;99.40
12130;DHT22;6128;59.340;18.040;2022-09-09T14:25:42;15.50;99.40
12130;DHT22;6128;59.340;18.040;2022-09-09T14:28:10;15.50;99.30
12130;DHT22;6128;59.340;18.040;2022-09-09T14:30:38;15.40;99.20
12130;DHT22;6128;59.340;18.040;2022-09-09T14:33:06;15.40;99.20
12130;DHT22;6128;59.340;18.040;2022-09-09T14:35:34;15.40;99.20
12130;DHT22;6128;59.340;18.040;2022-09-09T14:38:05;15.50;99.30
12130;DHT22;6128;59.340;18.040;2022-09-09T14:40:34;15.50;99.40
12130;DHT22;6128;59.340;18.040;2022-09-09T14:43:03;15.50;99.40
12130;DHT22;6128;59.340;18.040;2022-09-09T14:45:31;15.40;99.50
12130;DHT22;6128;59.340;18.040;2022-09-09T14:47:58;15.30;99.50
12130;DHT22;6128;59.340;18.040;2022-09-09T14:50:26;15.30;99.50
12130;DHT22;6128;59.340;18.040;2022-09-09T14:52:53;15.30;99.50
12130;DHT22;6128;59.340;18.040;2022-09-09T14:55:20;15.30;99.50
12130;DHT22;6128;59.340;18.040;2022-09-09T14:57:48;15.20;99.50
12130;DHT22;6128;59.340;18.040;2022-09-09T15:00:17;15.20;99.60
12130;DHT22;6128;59.340;18.040;2022-09-09T15:02:44;15.20;99.60
12130;DHT22;6128;59.340;18.040;2022-09-09T15:05:11;15.20;99.60
12130;DHT22;6128;59.340;18.040;2022-09-09T15:07:39;15.20;99.70
12130;DHT22;6128;59.340;18.040;2022-09-09T15:10:06;15.20;99.70
12130;DHT22;6128;59.340;18.040;2022-09-09T15:12:33;15.20;99.70
12130;DHT22;6128;59.340;18.040;2022-09-09T15:15:01;15.20;99.80
12130;DHT22;6128;59.340;18.040;2022-09-09T15:17:30;15.10;99.80
12130;DHT22;6128;59.340;18.040;2022-09-09T15:19:58;15.00;99.80
12130;DHT22;6128;59.340;18.040;2022-09-09T15:22:25;15.00;99.80
12130;DHT22;6128;59.340;18.040;2022-09-09T15:24:55;15.00;99.80
12130;DHT22;6128;59.340;18.040;2022-09-09T15:27:22;14.90;99.90
12130;DHT22;6128;59.340;18.040;2022-09-09T15:29:49;14.90;99.90
12130;DHT22;6128;59.340;18.040;2022-09-09T15:32:17;14.80;99.90
12130;DHT22;6128;59.340;18.040;2022-09-09T15:34:46;14.80;99.90
12130;DHT22;6128;59.340;18.040;2022-09-09T15:37:13;14.80;99.90
12130;DHT22;6128;59.340;18.040;2022-09-09T15:39:40;14.80;99.90
12130;DHT22;6128;59.340;18.040;2022-09-09T15:42:08;14.80;99.90
12130;DHT22;6128;59.340;18.040;2022-09-09T15:44:39;14.70;99.90
12130;DHT22;6128;59.340;18.040;2022-09-09T15:47:11;14.70;99.90
12130;DHT22;6128;59.340;18.040;2022-09-09T15:49:39;14.60;99.90
12130;DHT22;6128;59.340;18.040;2022-09-09T15:52:09;14.60;99.90
12130;DHT22;6128;59.340;18.040;2022-09-09T15:54:37;14.50;99.90
12130;DHT22;6128;59.340;18.040;2022-09-09T15:57:07;14.50;99.90
12130;DHT22;6128;59.340;18.040;2022-09-09T15:59:35;14.50;99.90
12130;DHT22;6128;59.340;18.040;2022-09-09T16:02:02;14.50;99.90
12130;DHT22;6128;59.340;18.040;2022-09-09T16:04:30;14.50;99.90